createdAt,value
2023-03-27T00:00:37.811Z,1.08
2023-03-27T00:03:04.491Z,1.00
2023-03-27T00:05:30.805Z,0.93
2023-03-27T00:07:57.304Z,0.95
2023-03-27T00:10:24.173Z,1.00
2023-03-27T00:12:50.726Z,0.98
2023-03-27T00:15:17.358Z,1.08
2023-03-27T00:17:49.308Z,1.20
2023-03-27T00:20:17.204Z,1.85
2023-03-27T00:22:43.802Z,1.48
2023-03-27T00:25:11.201Z,1.25
2023-03-27T00:27:37.634Z,1.27
2023-03-27T00:30:05.373Z,1.20
2023-03-27T00:32:32.724Z,1.25
2023-03-27T00:34:59.263Z,1.08
2023-03-27T00:37:25.544Z,1.40
2023-03-27T00:39:51.830Z,1.20
2023-03-27T00:42:21.838Z,1.20
2023-03-27T00:44:52.697Z,1.30
2023-03-27T00:47:28.848Z,1.30
2023-03-27T00:49:55.421Z,1.38
2023-03-27T00:52:21.823Z,1.60
2023-03-27T00:54:48.833Z,1.50
2023-03-27T00:57:19.286Z,1.52
2023-03-27T00:59:48.272Z,1.50
2023-03-27T01:02:16.799Z,1.52
2023-03-27T01:04:44.661Z,1.65
2023-03-27T01:07:11.444Z,1.52
2023-03-27T01:09:38.514Z,1.10
2023-03-27T01:12:22.307Z,1.60
2023-03-27T01:15:00.868Z,1.30
2023-03-27T01:17:45.440Z,1.40
2023-03-27T01:20:39.360Z,1.20
2023-03-27T01:23:35.459Z,0.98
2023-03-27T01:26:44.275Z,0.73
2023-03-27T01:29:26.873Z,0.57
2023-03-27T01:32:08.270Z,0.50
2023-03-27T01:35:01.110Z,0.63
2023-03-27T01:37:35.752Z,0.60
2023-03-27T01:40:18.556Z,0.55
2023-03-27T01:42:55.132Z,0.40
2023-03-27T01:45:29.080Z,0.40
2023-03-27T01:48:06.161Z,0.30
2023-03-27T01:50:35.334Z,0.40
2023-03-27T01:53:12.574Z,0.32
2023-03-27T01:55:44.037Z,0.43
2023-03-27T01:58:15.923Z,0.30
2023-03-27T02:00:51.892Z,0.40
2023-03-27T02:03:27.431Z,0.40
2023-03-27T02:06:24.762Z,0.45
2023-03-27T02:08:59.442Z,0.40
2023-03-27T02:11:31.475Z,0.70
2023-03-27T02:14:03.758Z,0.35
2023-03-27T02:16:34.627Z,0.57
2023-03-27T02:19:06.610Z,0.43
2023-03-27T02:21:32.899Z,0.40
2023-03-27T02:24:00.818Z,0.50
2023-03-27T02:26:28.513Z,0.50
2023-03-27T02:31:41.061Z,0.30
2023-03-27T02:34:07.312Z,0.13
2023-03-27T02:36:56.796Z,0.35
2023-03-27T02:39:47.884Z,0.20
2023-03-27T02:42:28.262Z,0.30
2023-03-27T02:45:07.957Z,0.30
2023-03-27T02:47:42.750Z,0.20
2023-03-27T02:50:16.261Z,0.10
2023-03-27T02:52:47.754Z,0.10
2023-03-27T02:55:18.883Z,0.10
2023-03-27T02:57:51.930Z,0.30
2023-03-27T03:02:49.757Z,0.30
2023-03-27T03:05:20.254Z,0.35
2023-03-27T03:07:48.162Z,0.30
2023-03-27T03:10:15.058Z,0.38
2023-03-27T03:12:41.837Z,0.50
2023-03-27T03:15:08.863Z,0.93
2023-03-27T03:17:35.167Z,0.45
2023-03-27T03:20:01.528Z,0.70
2023-03-27T03:22:27.878Z,0.50
2023-03-27T03:24:54.158Z,0.70
2023-03-27T03:27:20.576Z,0.77
2023-03-27T03:29:47.510Z,0.70
2023-03-27T03:32:13.995Z,0.90
2023-03-27T03:34:40.368Z,0.55
2023-03-27T03:37:06.676Z,0.90
2023-03-27T03:39:33.080Z,0.73
2023-03-27T03:41:59.401Z,0.85
2023-03-27T03:44:25.682Z,0.82
2023-03-27T03:46:52.071Z,1.10
2023-03-27T03:49:18.372Z,1.27
2023-03-27T03:51:44.787Z,1.33
2023-03-27T03:54:11.126Z,1.77
2023-03-27T03:56:37.696Z,2.20
2023-03-27T03:59:04.173Z,2.03
2023-03-27T04:01:30.485Z,1.75
2023-03-27T04:03:56.877Z,2.25
2023-03-27T04:06:23.276Z,2.00
2023-03-27T04:08:49.608Z,3.55
2023-03-27T04:11:15.900Z,1.95
2023-03-27T04:13:42.229Z,2.95
2023-03-27T04:16:08.877Z,2.50
2023-03-27T04:18:35.574Z,2.85
2023-03-27T04:21:02.413Z,2.25
2023-03-27T04:23:28.987Z,3.67
2023-03-27T04:25:55.406Z,2.88
2023-03-27T04:28:21.748Z,3.63
2023-03-27T04:30:48.045Z,2.35
2023-03-27T04:33:14.431Z,2.35
2023-03-27T04:35:40.745Z,3.47
2023-03-27T04:38:07.300Z,3.10
2023-03-27T04:40:33.607Z,3.35
2023-03-27T04:42:59.908Z,2.53
2023-03-27T04:45:26.345Z,2.80
2023-03-27T04:47:52.668Z,3.95
2023-03-27T04:50:19.107Z,3.55
2023-03-27T04:52:45.625Z,3.47
2023-03-27T04:55:11.908Z,3.70
2023-03-27T04:57:38.302Z,3.42
2023-03-27T05:00:05.680Z,2.65
2023-03-27T05:02:32.058Z,3.22
2023-03-27T05:04:58.613Z,3.05
2023-03-27T05:07:26.090Z,3.10
2023-03-27T05:09:52.748Z,4.07
2023-03-27T05:12:20.024Z,4.07
2023-03-27T05:14:46.513Z,2.97
2023-03-27T05:17:12.807Z,3.55
2023-03-27T05:19:39.107Z,3.45
2023-03-27T05:22:05.420Z,3.30
2023-03-27T05:24:31.755Z,3.35
2023-03-27T05:26:58.032Z,3.90
2023-03-27T05:29:24.532Z,3.95
2023-03-27T05:31:50.810Z,3.80
2023-03-27T05:34:17.116Z,3.60
2023-03-27T05:36:43.491Z,3.63
2023-03-27T05:39:09.785Z,3.83
2023-03-27T05:41:36.161Z,3.13
2023-03-27T05:44:02.452Z,2.92
2023-03-27T05:46:29.032Z,4.72
2023-03-27T05:48:55.354Z,3.83
2023-03-27T05:51:21.651Z,3.45
2023-03-27T05:53:48.051Z,4.47
2023-03-27T05:56:14.356Z,4.03
2023-03-27T05:58:40.742Z,3.88
2023-03-27T06:01:07.136Z,3.13
2023-03-27T06:03:33.602Z,3.35
2023-03-27T06:06:00.192Z,2.22
2023-03-27T06:08:27.785Z,3.72
2023-03-27T06:10:54.305Z,3.15
2023-03-27T06:13:20.797Z,3.85
2023-03-27T06:15:47.500Z,4.95
2023-03-27T06:18:13.806Z,4.07
2023-03-27T06:20:40.586Z,3.47
2023-03-27T06:23:07.262Z,4.22
2023-03-27T06:25:35.699Z,3.17
2023-03-27T06:28:03.200Z,3.33
2023-03-27T06:30:29.567Z,3.05
2023-03-27T06:33:00.042Z,4.30
2023-03-27T06:35:31.225Z,3.13
2023-03-27T06:37:58.488Z,2.78
2023-03-27T06:40:27.245Z,3.72
2023-03-27T06:43:06.946Z,3.38
2023-03-27T06:45:44.984Z,2.92
2023-03-27T06:48:15.936Z,2.25
2023-03-27T06:50:47.502Z,3.50
2023-03-27T06:53:25.805Z,3.20
2023-03-27T06:55:53.749Z,3.72
2023-03-27T06:58:20.049Z,3.28
2023-03-27T07:00:47.645Z,2.50
2023-03-27T07:03:13.974Z,3.13
2023-03-27T07:05:41.031Z,4.35
2023-03-27T07:08:22.338Z,3.13
2023-03-27T07:10:59.998Z,2.75
2023-03-27T07:13:34.340Z,3.17
2023-03-27T07:16:00.720Z,2.20
2023-03-27T07:18:27.245Z,2.97
2023-03-27T07:20:53.659Z,2.92
2023-03-27T07:23:20.042Z,2.80
2023-03-27T07:25:46.341Z,3.90
2023-03-27T07:28:13.921Z,3.10
2023-03-27T07:30:40.706Z,3.17
2023-03-27T07:33:07.238Z,3.15
2023-03-27T07:35:33.733Z,2.22
2023-03-27T07:38:01.907Z,3.20
2023-03-27T07:40:38.989Z,2.70
2023-03-27T07:43:06.064Z,3.50
2023-03-27T07:45:33.840Z,1.90
2023-03-27T07:50:37.333Z,1.65
2023-03-27T07:53:04.277Z,2.05
2023-03-27T07:55:30.642Z,1.75
2023-03-27T07:58:01.747Z,1.20
2023-03-27T08:00:30.210Z,1.60
2023-03-27T08:03:05.206Z,1.45
2023-03-27T08:05:31.586Z,1.83
2023-03-27T08:07:57.902Z,1.00
2023-03-27T08:10:24.223Z,1.50
2023-03-27T08:12:50.504Z,1.45
2023-03-27T08:15:16.983Z,0.60
2023-03-27T08:17:43.485Z,0.93
2023-03-27T08:20:10.195Z,0.75
2023-03-27T08:22:37.135Z,1.02
2023-03-27T08:25:05.395Z,0.85
2023-03-27T08:27:34.561Z,0.68
2023-03-27T08:30:01.276Z,0.80
2023-03-27T08:32:28.221Z,0.77
2023-03-27T08:34:54.566Z,0.80
2023-03-27T08:37:20.948Z,1.05
2023-03-27T08:39:47.324Z,0.85
2023-03-27T08:42:22.189Z,0.55
2023-03-27T08:44:52.905Z,1.10
2023-03-27T08:47:36.506Z,0.70
2023-03-27T08:50:12.196Z,0.80
2023-03-27T08:52:40.939Z,1.10
2023-03-27T08:55:16.282Z,0.60
2023-03-27T08:57:42.928Z,0.70
2023-03-27T09:00:22.754Z,1.35
2023-03-27T09:05:41.112Z,0.82
2023-03-27T09:08:31.639Z,0.70
2023-03-27T09:11:23.891Z,0.73
2023-03-27T09:13:52.149Z,0.50
2023-03-27T09:16:28.146Z,0.95
2023-03-27T09:19:28.504Z,0.65
2023-03-27T09:22:01.645Z,0.60
2023-03-27T09:24:29.960Z,0.85
2023-03-27T09:27:06.850Z,0.50
2023-03-27T09:29:39.286Z,0.80
2023-03-27T09:32:12.987Z,0.70
2023-03-27T09:34:39.340Z,0.50
2023-03-27T09:37:11.178Z,0.50
2023-03-27T09:39:41.934Z,0.63
2023-03-27T09:42:22.197Z,0.70
2023-03-27T09:44:53.178Z,0.60
2023-03-27T09:47:24.216Z,0.50
2023-03-27T09:49:56.377Z,0.57
2023-03-27T09:52:35.681Z,0.60
2023-03-27T09:55:02.758Z,0.60
2023-03-27T09:57:32.772Z,0.52
2023-03-27T10:00:22.187Z,0.40
2023-03-27T10:02:48.516Z,0.55
2023-03-27T10:05:18.468Z,0.50
2023-03-27T10:07:44.950Z,0.57
2023-03-27T10:10:20.185Z,0.35
2023-03-27T10:12:55.920Z,0.40
2023-03-27T10:15:37.797Z,0.75
2023-03-27T10:18:22.509Z,0.55
2023-03-27T10:20:54.317Z,0.57
2023-03-27T10:23:29.973Z,0.50
2023-03-27T10:26:00.980Z,0.80
2023-03-27T10:28:35.776Z,0.70
2023-03-27T10:31:04.933Z,0.40
2023-03-27T10:33:37.449Z,0.35
2023-03-27T10:36:09.288Z,0.60
2023-03-27T10:38:38.335Z,0.40
2023-03-27T10:41:13.974Z,0.60
2023-03-27T10:43:43.636Z,0.55
2023-03-27T10:46:16.710Z,0.60
2023-03-27T10:48:54.519Z,0.52
2023-03-27T10:51:48.978Z,0.60
2023-03-27T10:54:26.172Z,0.60
2023-03-27T10:56:59.610Z,0.50
2023-03-27T10:59:41.526Z,0.55
2023-03-27T11:02:16.521Z,0.50
2023-03-27T11:04:53.115Z,0.63
2023-03-27T11:07:28.831Z,0.55
2023-03-27T11:10:01.991Z,0.60
2023-03-27T11:12:32.730Z,0.50
2023-03-27T11:15:11.001Z,0.50
2023-03-27T11:17:54.228Z,0.70
2023-03-27T11:20:27.364Z,0.50
2023-03-27T11:23:03.336Z,0.75
2023-03-27T11:25:41.790Z,0.68
2023-03-27T11:28:14.534Z,0.52
2023-03-27T11:30:54.987Z,0.50
2023-03-27T11:34:00.520Z,0.90
2023-03-27T11:36:36.669Z,0.80
2023-03-27T11:39:11.782Z,1.08
2023-03-27T11:41:38.103Z,0.43
2023-03-27T11:44:04.763Z,0.80
2023-03-27T11:46:49.296Z,0.68
2023-03-27T11:49:21.257Z,0.60
2023-03-27T11:52:19.982Z,0.57
2023-03-27T11:55:04.699Z,0.55
2023-03-27T11:57:32.796Z,0.60
2023-03-27T12:00:22.349Z,0.40
2023-03-27T12:02:57.574Z,0.80
2023-03-27T12:05:50.040Z,0.60
2023-03-27T12:08:26.113Z,0.50
2023-03-27T12:10:56.919Z,0.60
2023-03-27T12:13:49.915Z,0.55
2023-03-27T12:19:28.340Z,0.65
2023-03-27T12:22:36.338Z,0.60
2023-03-27T12:25:21.007Z,0.85
2023-03-27T12:28:02.372Z,0.77
2023-03-27T12:30:45.752Z,0.68
2023-03-27T12:33:29.919Z,0.60
2023-03-27T12:36:00.311Z,0.63
2023-03-27T12:38:31.557Z,0.60
2023-03-27T12:41:12.036Z,0.63
2023-03-27T12:43:43.297Z,0.45
2023-03-27T12:46:12.344Z,0.50
2023-03-27T12:48:53.888Z,0.60
2023-03-27T12:51:40.869Z,0.57
2023-03-27T12:54:28.492Z,0.50
2023-03-27T12:57:14.097Z,0.60
2023-03-27T12:59:52.461Z,0.60
2023-03-27T13:03:04.348Z,0.47
2023-03-27T13:05:38.405Z,0.50
2023-03-27T13:08:41.457Z,0.68
2023-03-27T13:11:43.325Z,0.47
2023-03-27T13:14:19.478Z,0.65
2023-03-27T13:17:00.226Z,0.85
2023-03-27T13:19:52.123Z,0.40
2023-03-27T13:22:18.357Z,0.43
2023-03-27T13:25:06.576Z,0.47
2023-03-27T13:28:02.373Z,0.30
2023-03-27T13:30:48.405Z,0.45
2023-03-27T13:36:04.314Z,0.63
2023-03-27T13:38:50.426Z,0.55
2023-03-27T13:44:05.826Z,0.60
2023-03-27T13:46:33.907Z,0.98
2023-03-27T13:49:31.469Z,0.70
2023-03-27T13:52:28.844Z,0.90
2023-03-27T13:55:24.275Z,0.60
2023-03-27T13:57:58.797Z,0.75
2023-03-27T14:00:36.717Z,0.98
2023-03-27T14:03:41.457Z,0.88
2023-03-27T14:06:22.273Z,1.10
2023-03-27T14:09:18.730Z,0.80
2023-03-27T14:12:10.629Z,0.90
2023-03-27T14:15:00.673Z,1.10
2023-03-27T14:17:38.989Z,1.00
2023-03-27T14:20:17.417Z,0.90
2023-03-27T14:23:07.149Z,0.70
2023-03-27T14:25:39.491Z,0.80
2023-03-27T14:28:06.754Z,0.70
2023-03-27T14:30:44.037Z,1.25
2023-03-27T14:33:10.569Z,0.80
2023-03-27T14:35:43.299Z,0.85
2023-03-27T14:38:37.050Z,1.00
2023-03-27T14:41:17.218Z,1.00
2023-03-27T14:43:51.363Z,1.02
2023-03-27T14:46:21.155Z,0.80
2023-03-27T14:48:53.029Z,0.90
2023-03-27T14:51:22.785Z,0.95
2023-03-27T14:53:52.107Z,1.10
2023-03-27T14:56:29.308Z,0.85
2023-03-27T14:58:59.094Z,0.70
2023-03-27T15:01:26.789Z,0.75
2023-03-27T15:03:53.503Z,0.90
2023-03-27T15:06:22.191Z,1.00
2023-03-27T15:09:00.941Z,1.00
2023-03-27T15:11:33.860Z,0.93
2023-03-27T15:14:00.156Z,0.90
2023-03-27T15:16:29.561Z,1.20
2023-03-27T15:19:04.577Z,1.10
2023-03-27T15:21:37.325Z,1.30
2023-03-27T15:24:08.262Z,1.10
2023-03-27T15:26:35.069Z,1.08
2023-03-27T15:29:10.305Z,0.60
2023-03-27T15:31:37.150Z,1.50
2023-03-27T15:34:34.198Z,1.92
2023-03-27T15:37:05.186Z,1.40
2023-03-27T15:39:33.144Z,1.20
2023-03-27T15:42:05.058Z,1.05
2023-03-27T15:44:32.932Z,1.33
2023-03-27T15:47:00.760Z,0.90
2023-03-27T15:49:36.914Z,1.17
2023-03-27T15:52:45.153Z,0.90
2023-03-27T15:55:11.447Z,0.93
2023-03-27T15:57:37.887Z,0.80
2023-03-27T16:00:13.301Z,1.08
2023-03-27T16:02:40.019Z,0.90
2023-03-27T16:05:06.802Z,1.50
2023-03-27T16:07:42.769Z,0.80
2023-03-27T16:10:11.196Z,1.10
2023-03-27T16:12:55.040Z,1.50
2023-03-27T16:15:31.139Z,1.02
2023-03-27T16:18:01.124Z,1.05
2023-03-27T16:20:27.422Z,1.15
2023-03-27T16:22:53.701Z,1.52
2023-03-27T16:25:20.018Z,1.10
2023-03-27T16:27:52.860Z,1.00
2023-03-27T16:30:33.920Z,1.17
2023-03-27T16:33:00.703Z,1.40
2023-03-27T16:35:28.726Z,1.48
2023-03-27T16:37:55.530Z,1.27
2023-03-27T16:40:21.891Z,1.13
2023-03-27T16:42:48.891Z,1.27
2023-03-27T16:45:15.246Z,0.90
2023-03-27T16:47:41.871Z,1.35
2023-03-27T16:50:16.793Z,1.50
2023-03-27T16:52:43.227Z,1.33
2023-03-27T16:55:09.757Z,1.00
2023-03-27T16:57:36.070Z,0.90
2023-03-27T17:00:02.502Z,1.30
2023-03-27T17:02:28.948Z,1.50
2023-03-27T17:04:55.541Z,1.20
2023-03-27T17:07:22.016Z,1.20
2023-03-27T17:09:48.314Z,1.88
2023-03-27T17:12:14.690Z,1.25
2023-03-27T17:14:41.093Z,1.45
2023-03-27T17:17:07.410Z,1.00
2023-03-27T17:19:33.780Z,1.52
2023-03-27T17:22:00.119Z,1.38
2023-03-27T17:24:26.455Z,1.50
2023-03-27T17:26:52.759Z,1.30
2023-03-27T17:29:19.094Z,1.00
2023-03-27T17:31:45.480Z,1.45
2023-03-27T17:34:11.827Z,1.38
2023-03-27T17:36:44.962Z,1.35
2023-03-27T17:39:16.080Z,1.40
2023-03-27T17:41:42.561Z,1.10
2023-03-27T17:44:11.615Z,1.17
2023-03-27T17:46:38.028Z,1.40
2023-03-27T17:49:04.878Z,1.58
2023-03-27T17:51:31.204Z,1.35
2023-03-27T17:53:57.551Z,1.50
2023-03-27T17:56:23.869Z,1.50
2023-03-27T17:58:50.277Z,1.00
2023-03-27T18:01:22.533Z,1.60
2023-03-27T18:03:49.351Z,1.40
2023-03-27T18:06:17.505Z,1.60
2023-03-27T18:08:45.233Z,1.50
2023-03-27T18:11:13.622Z,1.42
2023-03-27T18:13:40.214Z,1.52
2023-03-27T18:16:08.041Z,1.42
2023-03-27T18:18:34.614Z,1.45
2023-03-27T18:21:00.984Z,1.55
2023-03-27T18:23:27.317Z,1.58
2023-03-27T18:25:53.807Z,1.35
2023-03-27T18:28:20.101Z,1.20
2023-03-27T18:30:46.460Z,1.48
2023-03-27T18:33:12.783Z,1.27
2023-03-27T18:35:39.349Z,1.75
2023-03-27T18:38:05.970Z,1.40
2023-03-27T18:40:32.326Z,1.40
2023-03-27T18:42:59.033Z,1.20
2023-03-27T18:45:25.395Z,1.10
2023-03-27T18:47:52.253Z,1.20
2023-03-27T18:50:18.633Z,1.45
2023-03-27T18:52:45.039Z,1.60
2023-03-27T18:55:11.354Z,1.38
2023-03-27T18:57:37.744Z,1.40
2023-03-27T19:00:05.781Z,1.05
2023-03-27T19:02:32.200Z,1.10
2023-03-27T19:04:58.543Z,1.50
2023-03-27T19:07:24.892Z,1.40
2023-03-27T19:09:51.180Z,1.60
2023-03-27T19:12:17.489Z,1.52
2023-03-27T19:14:43.822Z,1.20
2023-03-27T19:17:10.209Z,1.65
2023-03-27T19:19:36.595Z,1.40
2023-03-27T19:22:02.963Z,1.38
2023-03-27T19:24:29.273Z,1.70
2023-03-27T19:26:55.771Z,1.90
2023-03-27T19:29:22.194Z,1.52
2023-03-27T19:31:48.495Z,1.50
2023-03-27T19:34:14.797Z,1.80
2023-03-27T19:36:41.190Z,1.83
2023-03-27T19:39:07.479Z,1.75
2023-03-27T19:41:33.845Z,2.13
2023-03-27T19:44:00.665Z,1.83
2023-03-27T19:46:27.108Z,1.77
2023-03-27T19:48:53.488Z,1.90
2023-03-27T19:51:19.801Z,1.70
2023-03-27T19:53:46.162Z,1.65
2023-03-27T19:56:12.494Z,2.13
2023-03-27T19:58:38.832Z,1.60
2023-03-27T20:01:05.299Z,1.48
2023-03-27T20:03:31.720Z,2.38
2023-03-27T20:06:07.882Z,1.73
2023-03-27T20:08:35.946Z,1.63
2023-03-27T20:11:02.252Z,1.83
2023-03-27T20:13:28.538Z,1.52
2023-03-27T20:15:54.890Z,1.55
2023-03-27T20:18:21.330Z,1.45
2023-03-27T20:20:47.822Z,1.55
2023-03-27T20:23:14.179Z,1.42
2023-03-27T20:25:41.286Z,1.40
2023-03-27T20:28:08.070Z,1.75
2023-03-27T20:30:36.988Z,1.02
2023-03-27T20:33:03.592Z,1.00
2023-03-27T20:35:31.766Z,1.13
2023-03-27T20:37:58.249Z,1.45
2023-03-27T20:40:25.486Z,1.13
2023-03-27T20:42:51.777Z,1.23
2023-03-27T20:45:18.276Z,0.85
2023-03-27T20:47:46.267Z,0.82
2023-03-27T20:50:16.180Z,1.20
2023-03-27T20:52:43.211Z,1.00
2023-03-27T20:55:10.809Z,1.40
2023-03-27T20:57:39.748Z,1.25
2023-03-27T21:00:07.443Z,1.00
2023-03-27T21:02:34.516Z,1.45
2023-03-27T21:05:01.053Z,1.20
2023-03-27T21:07:27.368Z,0.70
2023-03-27T21:09:53.687Z,1.42
2023-03-27T21:12:20.032Z,1.10
2023-03-27T21:14:46.341Z,1.02
2023-03-27T21:17:12.631Z,1.15
2023-03-27T21:19:38.937Z,1.20
2023-03-27T21:22:05.244Z,1.23
2023-03-27T21:24:31.567Z,1.10
2023-03-27T21:26:57.937Z,1.08
2023-03-27T21:29:24.241Z,2.15
2023-03-27T21:31:50.623Z,2.22
2023-03-27T21:34:17.058Z,2.15
2023-03-27T21:36:43.433Z,1.77
2023-03-27T21:39:10.009Z,1.17
2023-03-27T21:41:36.366Z,1.40
2023-03-27T21:44:03.252Z,1.20
2023-03-27T21:46:29.693Z,1.42
2023-03-27T21:48:55.974Z,1.15
2023-03-27T21:51:22.284Z,1.25
2023-03-27T21:53:48.583Z,1.02
2023-03-27T21:56:14.885Z,1.17
2023-03-27T21:58:41.247Z,1.30
2023-03-27T22:01:08.187Z,1.25
2023-03-27T22:03:34.833Z,1.63
2023-03-27T22:06:12.538Z,1.42
2023-03-27T22:08:40.741Z,1.02
2023-03-27T22:11:07.293Z,1.10
2023-03-27T22:13:37.814Z,1.00
2023-03-27T22:16:12.216Z,1.25
2023-03-27T22:18:38.723Z,1.38
2023-03-27T22:21:15.899Z,0.90
2023-03-27T22:23:42.811Z,0.90
2023-03-27T22:26:09.271Z,1.30
2023-03-27T22:28:35.874Z,1.20
2023-03-27T22:31:02.592Z,1.30
2023-03-27T22:33:28.889Z,1.23
2023-03-27T22:35:55.244Z,1.10
2023-03-27T22:38:21.661Z,1.00
2023-03-27T22:40:47.953Z,1.45
2023-03-27T22:43:22.604Z,1.10
2023-03-27T22:45:49.742Z,1.00
2023-03-27T22:48:16.287Z,1.15
2023-03-27T22:50:42.596Z,1.13
2023-03-27T22:53:08.879Z,1.20
2023-03-27T22:55:35.190Z,1.23
2023-03-27T22:58:01.516Z,1.48
2023-03-27T23:00:27.920Z,1.10
2023-03-27T23:02:54.411Z,1.17
2023-03-27T23:05:20.752Z,1.40
2023-03-27T23:07:47.039Z,1.55
2023-03-27T23:10:13.454Z,1.75
2023-03-27T23:12:39.871Z,1.40
2023-03-27T23:15:06.683Z,1.50
2023-03-27T23:17:33.100Z,1.30
2023-03-27T23:19:59.444Z,1.27
2023-03-27T23:22:25.768Z,1.90
2023-03-27T23:24:52.168Z,1.88
2023-03-27T23:27:18.452Z,1.70
2023-03-27T23:29:44.741Z,1.80
2023-03-27T23:32:11.114Z,1.90
2023-03-27T23:34:37.461Z,1.80
2023-03-27T23:37:03.794Z,1.80
2023-03-27T23:39:30.091Z,1.90
2023-03-27T23:41:56.400Z,1.83
2023-03-27T23:44:22.696Z,1.60
2023-03-27T23:46:48.983Z,1.92
2023-03-27T23:49:15.390Z,1.40
2023-03-27T23:51:41.706Z,1.80
2023-03-27T23:54:07.988Z,1.65
2023-03-27T23:56:34.377Z,1.38
2023-03-27T23:59:00.683Z,1.80
